sensor_id;sensor_type;location;lat;lon;timestamp;pressure;altitude;pressure_sealevel;temperature
27826;BMP280;15077;49.704;9.908;2023-04-23T00:01:07;97464.91;;;18.78
27826;BMP280;15077;49.704;9.908;2023-04-23T00:03:34;97454.88;;;18.75
27826;BMP280;15077;49.704;9.908;2023-04-23T00:06:05;97461.88;;;18.73
27826;BMP280;15077;49.704;9.908;2023-04-23T00:08:39;97464.56;;;18.71
27826;BMP280;15077;49.704;9.908;2023-04-23T00:11:07;97468.34;;;18.67
27826;BMP280;15077;49.704;9.908;2023-04-23T00:13:36;97460.91;;;18.64
27826;BMP280;15077;49.704;9.908;2023-04-23T00:16:03;97453.47;;;18.61
27826;BMP280;15077;49.704;9.908;2023-04-23T00:18:29;97451.81;;;18.60
27826;BMP280;15077;49.704;9.908;2023-04-23T00:20:55;97454.63;;;18.57
27826;BMP280;15077;49.704;9.908;2023-04-23T00:23:22;97463.25;;;18.56
27826;BMP280;15077;49.704;9.908;2023-04-23T00:25:47;97454.91;;;18.54
27826;BMP280;15077;49.704;9.908;2023-04-23T00:28:14;97460.16;;;18.53
27826;BMP280;15077;49.704;9.908;2023-04-23T00:30:40;97458.63;;;18.50
27826;BMP280;15077;49.704;9.908;2023-04-23T00:33:07;97463.09;;;18.48
27826;BMP280;15077;49.704;9.908;2023-04-23T00:35:36;97461.56;;;18.46
27826;BMP280;15077;49.704;9.908;2023-04-23T00:38:02;97465.22;;;18.44
27826;BMP280;15077;49.704;9.908;2023-04-23T00:40:29;97464.53;;;18.42
27826;BMP280;15077;49.704;9.908;2023-04-23T00:42:56;97462.19;;;18.39
27826;BMP280;15077;49.704;9.908;2023-04-23T00:45:22;97465.00;;;18.36
27826;BMP280;15077;49.704;9.908;2023-04-23T00:47:48;97464.59;;;18.31
27826;BMP280;15077;49.704;9.908;2023-04-23T00:50:15;97459.94;;;18.25
27826;BMP280;15077;49.704;9.908;2023-04-23T00:52:41;97465.34;;;18.22
27826;BMP280;15077;49.704;9.908;2023-04-23T00:55:08;97463.00;;;18.19
27826;BMP280;15077;49.704;9.908;2023-04-23T00:57:37;97464.63;;;18.20
27826;BMP280;15077;49.704;9.908;2023-04-23T01:00:06;97459.59;;;18.18
27826;BMP280;15077;49.704;9.908;2023-04-23T01:02:36;97452.88;;;18.17
27826;BMP280;15077;49.704;9.908;2023-04-23T01:05:05;97457.16;;;18.17
27826;BMP280;15077;49.704;9.908;2023-04-23T01:07:34;97449.59;;;18.15
27826;BMP280;15077;49.704;9.908;2023-04-23T01:10:02;97452.75;;;18.19
27826;BMP280;15077;49.704;9.908;2023-04-23T01:12:28;97456.00;;;18.21
27826;BMP280;15077;49.704;9.908;2023-04-23T01:14:55;97456.69;;;18.23
27826;BMP280;15077;49.704;9.908;2023-04-23T01:17:21;97454.81;;;18.25
27826;BMP280;15077;49.704;9.908;2023-04-23T01:19:47;97451.28;;;18.26
27826;BMP280;15077;49.704;9.908;2023-04-23T01:22:15;97457.25;;;18.26
27826;BMP280;15077;49.704;9.908;2023-04-23T01:24:42;97464.84;;;18.28
27826;BMP280;15077;49.704;9.908;2023-04-23T01:27:10;97466.56;;;18.27
27826;BMP280;15077;49.704;9.908;2023-04-23T01:29:38;97462.50;;;18.25
27826;BMP280;15077;49.704;9.908;2023-04-23T01:32:06;97469.50;;;18.23
27826;BMP280;15077;49.704;9.908;2023-04-23T01:34:34;97468.81;;;18.21
27826;BMP280;15077;49.704;9.908;2023-04-23T01:37:02;97463.00;;;18.19
27826;BMP280;15077;49.704;9.908;2023-04-23T01:39:28;97464.19;;;18.15
27826;BMP280;15077;49.704;9.908;2023-04-23T01:41:54;97477.94;;;18.14
27826;BMP280;15077;49.704;9.908;2023-04-23T01:44:23;97474.66;;;18.12
27826;BMP280;15077;49.704;9.908;2023-04-23T01:46:52;97476.41;;;18.11
27826;BMP280;15077;49.704;9.908;2023-04-23T01:49:20;97480.72;;;18.11
27826;BMP280;15077;49.704;9.908;2023-04-23T01:51:46;97474.91;;;18.09
27826;BMP280;15077;49.704;9.908;2023-04-23T01:54:12;97477.47;;;18.09
27826;BMP280;15077;49.704;9.908;2023-04-23T01:56:37;97481.91;;;18.07
27826;BMP280;15077;49.704;9.908;2023-04-23T01:59:04;97474.34;;;18.05
27826;BMP280;15077;49.704;9.908;2023-04-23T02:01:44;97480.50;;;18.03
27826;BMP280;15077;49.704;9.908;2023-04-23T02:04:13;97476.44;;;18.00
27826;BMP280;15077;49.704;9.908;2023-04-23T02:06:42;97474.00;;;17.99
27826;BMP280;15077;49.704;9.908;2023-04-23T02:09:08;97477.59;;;17.97
27826;BMP280;15077;49.704;9.908;2023-04-23T02:11:35;97469.34;;;17.93
27826;BMP280;15077;49.704;9.908;2023-04-23T02:14:03;97477.97;;;17.92
27826;BMP280;15077;49.704;9.908;2023-04-23T02:16:30;97472.16;;;17.90
27826;BMP280;15077;49.704;9.908;2023-04-23T02:18:57;97477.53;;;17.87
27826;BMP280;15077;49.704;9.908;2023-04-23T02:21:24;97488.03;;;17.84
27826;BMP280;15077;49.704;9.908;2023-04-23T02:23:53;97484.06;;;17.80
27826;BMP280;15077;49.704;9.908;2023-04-23T02:26:19;97480.00;;;17.78
27826;BMP280;15077;49.704;9.908;2023-04-23T02:28:47;97472.56;;;17.75
27826;BMP280;15077;49.704;9.908;2023-04-23T02:31:17;97472.69;;;17.73
27826;BMP280;15077;49.704;9.908;2023-04-23T02:33:45;97481.28;;;17.72
27826;BMP280;15077;49.704;9.908;2023-04-23T02:36:12;97480.72;;;17.69
27826;BMP280;15077;49.704;9.908;2023-04-23T02:38:40;97486.09;;;17.66
27826;BMP280;15077;49.704;9.908;2023-04-23T02:41:10;97486.44;;;17.61
27826;BMP280;15077;49.704;9.908;2023-04-23T02:43:36;97488.31;;;17.59
27826;BMP280;15077;49.704;9.908;2023-04-23T02:46:02;97480.84;;;17.56
27826;BMP280;15077;49.704;9.908;2023-04-23T02:48:39;97484.59;;;17.52
27826;BMP280;15077;49.704;9.908;2023-04-23T02:51:12;97485.03;;;17.47
27826;BMP280;15077;49.704;9.908;2023-04-23T02:53:40;97492.97;;;17.44
27826;BMP280;15077;49.704;9.908;2023-04-23T02:56:08;97492.28;;;17.42
27826;BMP280;15077;49.704;9.908;2023-04-23T02:58:36;97490.66;;;17.41
27826;BMP280;15077;49.704;9.908;2023-04-23T03:01:04;97487.41;;;17.39
27826;BMP280;15077;49.704;9.908;2023-04-23T03:03:32;97496.13;;;17.36
27826;BMP280;15077;49.704;9.908;2023-04-23T03:06:01;97491.34;;;17.32
27826;BMP280;15077;49.704;9.908;2023-04-23T03:08:28;97489.75;;;17.31
27826;BMP280;15077;49.704;9.908;2023-04-23T03:10:54;97504.28;;;17.30
27826;BMP280;15077;49.704;9.908;2023-04-23T03:13:19;97500.91;;;17.30
27826;BMP280;15077;49.704;9.908;2023-04-23T03:15:45;97501.03;;;17.28
27826;BMP280;15077;49.704;9.908;2023-04-23T03:18:13;97502.78;;;17.28
27826;BMP280;15077;49.704;9.908;2023-04-23T03:20:40;97493.56;;;17.25
27826;BMP280;15077;49.704;9.908;2023-04-23T03:23:07;97496.94;;;17.26
27826;BMP280;15077;49.704;9.908;2023-04-23T03:25:33;97497.78;;;17.26
27826;BMP280;15077;49.704;9.908;2023-04-23T03:28:00;97498.69;;;17.25
27826;BMP280;15077;49.704;9.908;2023-04-23T03:30:27;97500.47;;;17.25
27826;BMP280;15077;49.704;9.908;2023-04-23T03:32:57;97496.94;;;17.26
27826;BMP280;15077;49.704;9.908;2023-04-23T03:35:24;97506.38;;;17.25
27826;BMP280;15077;49.704;9.908;2023-04-23T03:37:55;97496.25;;;17.24
27826;BMP280;15077;49.704;9.908;2023-04-23T03:40:21;97503.13;;;17.23
27826;BMP280;15077;49.704;9.908;2023-04-23T03:42:47;97505.69;;;17.23
27826;BMP280;15077;49.704;9.908;2023-04-23T03:45:14;97503.13;;;17.23
27826;BMP280;15077;49.704;9.908;2023-04-23T03:47:41;97503.13;;;17.23
27826;BMP280;15077;49.704;9.908;2023-04-23T03:50:08;97509.97;;;17.23
27826;BMP280;15077;49.704;9.908;2023-04-23T03:52:36;97508.25;;;17.23
27826;BMP280;15077;49.704;9.908;2023-04-23T03:55:04;97510.94;;;17.22
27826;BMP280;15077;49.704;9.908;2023-04-23T03:57:35;97512.66;;;17.21
27826;BMP280;15077;49.704;9.908;2023-04-23T04:00:03;97515.22;;;17.21
27826;BMP280;15077;49.704;9.908;2023-04-23T04:02:28;97507.84;;;17.17
27826;BMP280;15077;49.704;9.908;2023-04-23T04:04:54;97504.59;;;17.15
27826;BMP280;15077;49.704;9.908;2023-04-23T04:07:21;97518.22;;;17.15
27826;BMP280;15077;49.704;9.908;2023-04-23T04:09:46;97512.28;;;17.15
27826;BMP280;15077;49.704;9.908;2023-04-23T04:12:15;97511.59;;;17.13
27826;BMP280;15077;49.704;9.908;2023-04-23T04:14:41;97516.72;;;17.13
27826;BMP280;15077;49.704;9.908;2023-04-23T04:17:07;97517.53;;;17.13
27826;BMP280;15077;49.704;9.908;2023-04-23T04:19:34;97513.19;;;17.14
27826;BMP280;15077;49.704;9.908;2023-04-23T04:21:59;97518.31;;;17.14
27826;BMP280;15077;49.704;9.908;2023-04-23T04:24:28;97523.34;;;17.15
27826;BMP280;15077;49.704;9.908;2023-04-23T04:26:58;97517.19;;;17.18
27826;BMP280;15077;49.704;9.908;2023-04-23T04:29:25;97511.13;;;17.19
27826;BMP280;15077;49.704;9.908;2023-04-23T04:31:54;97512.53;;;17.23
27826;BMP280;15077;49.704;9.908;2023-04-23T04:34:20;97503.94;;;17.24
27826;BMP280;15077;49.704;9.908;2023-04-23T04:36:46;97508.81;;;17.27
27826;BMP280;15077;49.704;9.908;2023-04-23T04:39:12;97513.72;;;17.30
27826;BMP280;15077;49.704;9.908;2023-04-23T04:41:40;97515.34;;;17.31
27826;BMP280;15077;49.704;9.908;2023-04-23T04:44:06;97516.16;;;17.31
27826;BMP280;15077;49.704;9.908;2023-04-23T04:46:35;97521.84;;;17.35
27826;BMP280;15077;49.704;9.908;2023-04-23T04:49:11;97524.53;;;17.33
27826;BMP280;15077;49.704;9.908;2023-04-23T04:51:38;97520.78;;;17.15
27826;BMP280;15077;49.704;9.908;2023-04-23T04:54:05;97521.06;;;17.23
27826;BMP280;15077;49.704;9.908;2023-04-23T04:56:33;97519.31;;;17.24
27826;BMP280;15077;49.704;9.908;2023-04-23T04:58:59;97520.09;;;17.24
27826;BMP280;15077;49.704;9.908;2023-04-23T05:01:27;97522.56;;;17.26
27826;BMP280;15077;49.704;9.908;2023-04-23T05:03:54;97525.13;;;17.26
27826;BMP280;15077;49.704;9.908;2023-04-23T05:06:21;97531.19;;;17.25
27826;BMP280;15077;49.704;9.908;2023-04-23T05:08:46;97528.75;;;17.23
27826;BMP280;15077;49.704;9.908;2023-04-23T05:11:17;97542.34;;;17.24
27826;BMP280;15077;49.704;9.908;2023-04-23T05:13:45;97540.81;;;17.21
27826;BMP280;15077;49.704;9.908;2023-04-23T05:16:11;97542.59;;;17.21
27826;BMP280;15077;49.704;9.908;2023-04-23T05:18:38;97547.59;;;17.22
27826;BMP280;15077;49.704;9.908;2023-04-23T05:21:05;97551.06;;;17.21
27826;BMP280;15077;49.704;9.908;2023-04-23T05:23:32;97555.38;;;17.21
27826;BMP280;15077;49.704;9.908;2023-04-23T05:25:58;97546.97;;;17.19
27826;BMP280;15077;49.704;9.908;2023-04-23T05:28:24;97555.59;;;17.18
27826;BMP280;15077;49.704;9.908;2023-04-23T05:30:51;97548.81;;;17.17
27826;BMP280;15077;49.704;9.908;2023-04-23T05:33:17;97559.06;;;17.17
27826;BMP280;15077;49.704;9.908;2023-04-23T05:35:43;97564.19;;;17.17
27826;BMP280;15077;49.704;9.908;2023-04-23T05:38:09;97555.00;;;17.14
27826;BMP280;15077;49.704;9.908;2023-04-23T05:40:35;97553.25;;;17.15
27826;BMP280;15077;49.704;9.908;2023-04-23T05:43:01;97555.81;;;17.15
27826;BMP280;15077;49.704;9.908;2023-04-23T05:45:27;97559.28;;;17.14
27826;BMP280;15077;49.704;9.908;2023-04-23T05:47:53;97566.84;;;17.15
27826;BMP280;15077;49.704;9.908;2023-04-23T05:50:20;97561.75;;;17.15
27826;BMP280;15077;49.704;9.908;2023-04-23T05:52:46;97574.44;;;17.17
27826;BMP280;15077;49.704;9.908;2023-04-23T05:55:12;97566.63;;;17.18
27826;BMP280;15077;49.704;9.908;2023-04-23T05:57:40;97569.31;;;17.17
27826;BMP280;15077;49.704;9.908;2023-04-23T06:00:07;97568.50;;;17.16
27826;BMP280;15077;49.704;9.908;2023-04-23T06:02:40;97567.69;;;17.16
27826;BMP280;15077;49.704;9.908;2023-04-23T06:05:06;97569.31;;;17.17
27826;BMP280;15077;49.704;9.908;2023-04-23T06:07:32;97580.50;;;17.16
27826;BMP280;15077;49.704;9.908;2023-04-23T06:09:58;97577.81;;;17.17
27826;BMP280;15077;49.704;9.908;2023-04-23T06:12:25;97571.63;;;17.20
27826;BMP280;15077;49.704;9.908;2023-04-23T06:14:52;97568.88;;;17.23
27826;BMP280;15077;49.704;9.908;2023-04-23T06:17:18;97566.22;;;17.24
27826;BMP280;15077;49.704;9.908;2023-04-23T06:19:43;97572.16;;;17.25
27826;BMP280;15077;49.704;9.908;2023-04-23T06:22:09;97567.72;;;17.27
27826;BMP280;15077;49.704;9.908;2023-04-23T06:24:35;97576.22;;;17.27
27826;BMP280;15077;49.704;9.908;2023-04-23T06:27:01;97572.72;;;17.28
27826;BMP280;15077;49.704;9.908;2023-04-23T06:29:27;97564.94;;;17.30
27826;BMP280;15077;49.704;9.908;2023-04-23T06:32:00;97576.59;;;17.34
27826;BMP280;15077;49.704;9.908;2023-04-23T06:34:26;97563.78;;;17.34
27826;BMP280;15077;49.704;9.908;2023-04-23T06:36:52;97567.03;;;17.36
27826;BMP280;15077;49.704;9.908;2023-04-23T06:39:17;97560.88;;;17.38
27826;BMP280;15077;49.704;9.908;2023-04-23T06:41:43;97557.25;;;17.41
27826;BMP280;15077;49.704;9.908;2023-04-23T06:44:09;97562.97;;;17.44
27826;BMP280;15077;49.704;9.908;2023-04-23T06:46:35;97561.91;;;17.47
27826;BMP280;15077;49.704;9.908;2023-04-23T06:49:00;97559.94;;;17.50
27826;BMP280;15077;49.704;9.908;2023-04-23T06:51:26;97560.41;;;17.55
27826;BMP280;15077;49.704;9.908;2023-04-23T06:53:52;97568.69;;;17.58
27826;BMP280;15077;49.704;9.908;2023-04-23T06:56:19;97567.63;;;17.61
27826;BMP280;15077;49.704;9.908;2023-04-23T06:58:46;97571.03;;;17.61
27826;BMP280;15077;49.704;9.908;2023-04-23T07:01:12;97566.69;;;17.62
27826;BMP280;15077;49.704;9.908;2023-04-23T07:03:38;97564.00;;;17.63
27826;BMP280;15077;49.704;9.908;2023-04-23T07:06:04;97563.78;;;17.66
27826;BMP280;15077;49.704;9.908;2023-04-23T07:08:31;97560.97;;;17.69
27826;BMP280;15077;49.704;9.908;2023-04-23T07:10:56;97544.69;;;17.70
27826;BMP280;15077;49.704;9.908;2023-04-23T07:13:23;97562.50;;;17.72
27826;BMP280;15077;49.704;9.908;2023-04-23T07:15:49;97551.41;;;17.71
27826;BMP280;15077;49.704;9.908;2023-04-23T07:18:15;97546.06;;;17.74
27826;BMP280;15077;49.704;9.908;2023-04-23T07:20:40;97548.63;;;17.74
27826;BMP280;15077;49.704;9.908;2023-04-23T07:23:06;97539.88;;;17.77
27826;BMP280;15077;49.704;9.908;2023-04-23T07:25:32;97540.69;;;17.77
27826;BMP280;15077;49.704;9.908;2023-04-23T07:27:58;97544.78;;;17.80
27826;BMP280;15077;49.704;9.908;2023-04-23T07:30:26;97538.84;;;17.79
27826;BMP280;15077;49.704;9.908;2023-04-23T07:32:52;97539.53;;;17.81
27826;BMP280;15077;49.704;9.908;2023-04-23T07:35:18;97537.78;;;17.82
27826;BMP280;15077;49.704;9.908;2023-04-23T07:37:44;97545.09;;;17.86
27826;BMP280;15077;49.704;9.908;2023-04-23T07:40:10;97539.84;;;17.88
27826;BMP280;15077;49.704;9.908;2023-04-23T07:42:36;97545.69;;;17.90
27826;BMP280;15077;49.704;9.908;2023-04-23T07:45:02;97551.41;;;17.93
27826;BMP280;15077;49.704;9.908;2023-04-23T07:47:28;97549.31;;;17.98
27826;BMP280;15077;49.704;9.908;2023-04-23T07:49:54;97544.88;;;18.00
27826;BMP280;15077;49.704;9.908;2023-04-23T07:52:20;97550.44;;;18.05
27826;BMP280;15077;49.704;9.908;2023-04-23T07:54:46;97544.25;;;18.07
27826;BMP280;15077;49.704;9.908;2023-04-23T07:57:12;97547.38;;;18.11
27826;BMP280;15077;49.704;9.908;2023-04-23T07:59:37;97547.06;;;18.15
27826;BMP280;15077;49.704;9.908;2023-04-23T08:02:04;97542.41;;;18.20
27826;BMP280;15077;49.704;9.908;2023-04-23T08:04:33;97551.22;;;18.27
27826;BMP280;15077;49.704;9.908;2023-04-23T08:06:59;97554.25;;;18.32
27826;BMP280;15077;49.704;9.908;2023-04-23T08:09:24;97545.22;;;18.38
27826;BMP280;15077;49.704;9.908;2023-04-23T08:11:51;97533.78;;;18.42
27826;BMP280;15077;49.704;9.908;2023-04-23T08:14:17;97535.19;;;18.46
27826;BMP280;15077;49.704;9.908;2023-04-23T08:16:43;97534.94;;;18.48
27826;BMP280;15077;49.704;9.908;2023-04-23T08:19:09;97530.38;;;18.52
27826;BMP280;15077;49.704;9.908;2023-04-23T08:21:34;97535.84;;;18.58
27826;BMP280;15077;49.704;9.908;2023-04-23T08:24:00;97531.00;;;18.65
27826;BMP280;15077;49.704;9.908;2023-04-23T08:26:30;97532.28;;;18.70
27826;BMP280;15077;49.704;9.908;2023-04-23T08:28:56;97524.06;;;18.76
27826;BMP280;15077;49.704;9.908;2023-04-23T08:31:21;97520.03;;;18.83
27826;BMP280;15077;49.704;9.908;2023-04-23T08:33:47;97513.47;;;18.90
27826;BMP280;15077;49.704;9.908;2023-04-23T08:36:13;97504.47;;;18.96
27826;BMP280;15077;49.704;9.908;2023-04-23T08:38:40;97509.09;;;19.01
27826;BMP280;15077;49.704;9.908;2023-04-23T08:41:10;97498.88;;;19.11
27826;BMP280;15077;49.704;9.908;2023-04-23T08:43:46;97505.81;;;19.20
27826;BMP280;15077;49.704;9.908;2023-04-23T08:46:14;97511.16;;;19.28
27826;BMP280;15077;49.704;9.908;2023-04-23T08:48:44;97511.44;;;19.34
27826;BMP280;15077;49.704;9.908;2023-04-23T08:51:16;97500.75;;;19.39
27826;BMP280;15077;49.704;9.908;2023-04-23T08:53:44;97503.91;;;19.42
27826;BMP280;15077;49.704;9.908;2023-04-23T08:56:15;97500.69;;;19.49
27826;BMP280;15077;49.704;9.908;2023-04-23T08:58:41;97501.78;;;19.56
27826;BMP280;15077;49.704;9.908;2023-04-23T09:01:11;97499.66;;;19.61
27826;BMP280;15077;49.704;9.908;2023-04-23T09:03:37;97505.19;;;19.66
27826;BMP280;15077;49.704;9.908;2023-04-23T09:06:04;97497.88;;;19.71
27826;BMP280;15077;49.704;9.908;2023-04-23T09:08:31;97504.00;;;19.80
27826;BMP280;15077;49.704;9.908;2023-04-23T09:11:01;97502.00;;;19.83
27826;BMP280;15077;49.704;9.908;2023-04-23T09:13:29;97502.69;;;19.85
27826;BMP280;15077;49.704;9.908;2023-04-23T09:15:56;97504.31;;;19.86
27826;BMP280;15077;49.704;9.908;2023-04-23T09:18:22;97510.56;;;19.93
27826;BMP280;15077;49.704;9.908;2023-04-23T09:20:49;97499.06;;;19.97
27826;BMP280;15077;49.704;9.908;2023-04-23T09:23:15;97500.31;;;20.02
27826;BMP280;15077;49.704;9.908;2023-04-23T09:25:41;97496.22;;;20.09
27826;BMP280;15077;49.704;9.908;2023-04-23T09:28:07;97494.09;;;20.14
27826;BMP280;15077;49.704;9.908;2023-04-23T09:30:53;97500.56;;;20.18
27826;BMP280;15077;49.704;9.908;2023-04-23T09:33:20;97485.44;;;20.25
27826;BMP280;15077;49.704;9.908;2023-04-23T09:35:47;97485.69;;;20.31
27826;BMP280;15077;49.704;9.908;2023-04-23T09:38:13;97482.44;;;20.39
27826;BMP280;15077;49.704;9.908;2023-04-23T09:40:39;97482.59;;;20.46
27826;BMP280;15077;49.704;9.908;2023-04-23T09:43:10;97475.91;;;20.53
27826;BMP280;15077;49.704;9.908;2023-04-23T09:45:36;97469.94;;;20.62
27826;BMP280;15077;49.704;9.908;2023-04-23T09:48:02;97469.13;;;20.71
27826;BMP280;15077;49.704;9.908;2023-04-23T09:50:38;97471.72;;;20.81
27826;BMP280;15077;49.704;9.908;2023-04-23T09:53:08;97466.94;;;20.86
27826;BMP280;15077;49.704;9.908;2023-04-23T09:55:38;97463.00;;;20.91
27826;BMP280;15077;49.704;9.908;2023-04-23T09:58:10;97469.66;;;20.94
27826;BMP280;15077;49.704;9.908;2023-04-23T10:00:38;97466.09;;;20.94
27826;BMP280;15077;49.704;9.908;2023-04-23T10:03:05;97466.94;;;20.95
27826;BMP280;15077;49.704;9.908;2023-04-23T10:05:39;97451.88;;;21.00
27826;BMP280;15077;49.704;9.908;2023-04-23T10:08:08;97457.69;;;21.02
27826;BMP280;15077;49.704;9.908;2023-04-23T10:10:34;97454.53;;;21.08
27826;BMP280;15077;49.704;9.908;2023-04-23T10:13:01;97444.22;;;21.17
27826;BMP280;15077;49.704;9.908;2023-04-23T10:15:27;97439.97;;;21.26
27826;BMP280;15077;49.704;9.908;2023-04-23T10:17:54;97445.88;;;21.36
27826;BMP280;15077;49.704;9.908;2023-04-23T10:20:22;97444.50;;;21.41
27826;BMP280;15077;49.704;9.908;2023-04-23T10:22:48;97438.25;;;21.43
27826;BMP280;15077;49.704;9.908;2023-04-23T10:25:15;97433.91;;;21.44
27826;BMP280;15077;49.704;9.908;2023-04-23T10:27:44;97435.53;;;21.45
27826;BMP280;15077;49.704;9.908;2023-04-23T10:30:13;97431.06;;;21.47
27826;BMP280;15077;49.704;9.908;2023-04-23T10:32:39;97444.19;;;21.53
27826;BMP280;15077;49.704;9.908;2023-04-23T10:35:08;97440.09;;;21.60
27826;BMP280;15077;49.704;9.908;2023-04-23T10:37:35;97435.97;;;21.67
27826;BMP280;15077;49.704;9.908;2023-04-23T10:40:13;97432.66;;;21.75
27826;BMP280;15077;49.704;9.908;2023-04-23T10:42:40;97432.31;;;21.87
27826;BMP280;15077;49.704;9.908;2023-04-23T10:45:15;97428.25;;;22.02
27826;BMP280;15077;49.704;9.908;2023-04-23T10:47:42;97424.78;;;22.11
27826;BMP280;15077;49.704;9.908;2023-04-23T10:50:34;97416.31;;;22.18
27826;BMP280;15077;49.704;9.908;2023-04-23T10:53:02;97420.31;;;22.30
27826;BMP280;15077;49.704;9.908;2023-04-23T10:55:30;97418.09;;;22.35
27826;BMP280;15077;49.704;9.908;2023-04-23T10:58:04;97404.72;;;22.40
27826;BMP280;15077;49.704;9.908;2023-04-23T11:00:44;97407.16;;;22.41
27826;BMP280;15077;49.704;9.908;2023-04-23T11:03:38;97407.97;;;22.42
27826;BMP280;15077;49.704;9.908;2023-04-23T11:06:05;97400.28;;;22.49
27826;BMP280;15077;49.704;9.908;2023-04-23T11:08:34;97390.59;;;22.51
27826;BMP280;15077;49.704;9.908;2023-04-23T11:11:06;97397.09;;;22.55
27826;BMP280;15077;49.704;9.908;2023-04-23T11:13:32;97392.91;;;22.54
27826;BMP280;15077;49.704;9.908;2023-04-23T11:16:20;97379.34;;;22.52
27826;BMP280;15077;49.704;9.908;2023-04-23T11:18:58;97389.19;;;22.57
27826;BMP280;15077;49.704;9.908;2023-04-23T11:22:01;97382.56;;;22.54
27826;BMP280;15077;49.704;9.908;2023-04-23T11:24:45;97382.78;;;22.61
27826;BMP280;15077;49.704;9.908;2023-04-23T11:27:14;97379.13;;;22.71
27826;BMP280;15077;49.704;9.908;2023-04-23T11:29:43;97372.38;;;22.78
27826;BMP280;15077;49.704;9.908;2023-04-23T11:32:10;97370.78;;;22.85
27826;BMP280;15077;49.704;9.908;2023-04-23T11:34:43;97368.94;;;22.95
27826;BMP280;15077;49.704;9.908;2023-04-23T11:37:17;97361.38;;;23.01
27826;BMP280;15077;49.704;9.908;2023-04-23T11:39:45;97353.34;;;23.12
27826;BMP280;15077;49.704;9.908;2023-04-23T11:42:16;97364.66;;;23.19
27826;BMP280;15077;49.704;9.908;2023-04-23T11:44:45;97356.91;;;23.19
27826;BMP280;15077;49.704;9.908;2023-04-23T11:47:14;97360.00;;;23.23
27826;BMP280;15077;49.704;9.908;2023-04-23T11:49:42;97351.13;;;23.25
27826;BMP280;15077;49.704;9.908;2023-04-23T11:52:09;97344.19;;;23.26
27826;BMP280;15077;49.704;9.908;2023-04-23T11:54:35;97348.06;;;23.30
27826;BMP280;15077;49.704;9.908;2023-04-23T11:57:01;97338.38;;;23.32
27826;BMP280;15077;49.704;9.908;2023-04-23T11:59:30;97331.13;;;23.35
27826;BMP280;15077;49.704;9.908;2023-04-23T12:01:58;97335.81;;;23.40
27826;BMP280;15077;49.704;9.908;2023-04-23T12:04:27;97327.09;;;23.41
27826;BMP280;15077;49.704;9.908;2023-04-23T12:06:55;97321.91;;;23.41
27826;BMP280;15077;49.704;9.908;2023-04-23T12:09:24;97329.69;;;23.41
27826;BMP280;15077;49.704;9.908;2023-04-23T12:11:51;97330.00;;;23.38
27826;BMP280;15077;49.704;9.908;2023-04-23T12:14:19;97323.19;;;23.37
27826;BMP280;15077;49.704;9.908;2023-04-23T12:16:47;97326.75;;;23.36
27826;BMP280;15077;49.704;9.908;2023-04-23T12:19:28;97315.44;;;23.37
27826;BMP280;15077;49.704;9.908;2023-04-23T12:22:00;97319.34;;;23.41
27826;BMP280;15077;49.704;9.908;2023-04-23T12:26:59;97320.34;;;23.55
27826;BMP280;15077;49.704;9.908;2023-04-23T12:29:29;97318.72;;;23.62
27826;BMP280;15077;49.704;9.908;2023-04-23T12:31:58;97312.94;;;23.68
27826;BMP280;15077;49.704;9.908;2023-04-23T12:34:24;97308.25;;;23.72
27826;BMP280;15077;49.704;9.908;2023-04-23T12:36:54;97304.53;;;23.74
27826;BMP280;15077;49.704;9.908;2023-04-23T12:41:51;97311.16;;;23.77
27826;BMP280;15077;49.704;9.908;2023-04-23T12:44:17;97308.72;;;23.75
27826;BMP280;15077;49.704;9.908;2023-04-23T12:46:43;97298.53;;;23.74
27826;BMP280;15077;49.704;9.908;2023-04-23T12:49:09;97297.75;;;23.73
27826;BMP280;15077;49.704;9.908;2023-04-23T12:51:35;97296.78;;;23.74
27826;BMP280;15077;49.704;9.908;2023-04-23T12:54:01;97295.47;;;23.78
27826;BMP280;15077;49.704;9.908;2023-04-23T12:56:26;97286.41;;;23.82
27826;BMP280;15077;49.704;9.908;2023-04-23T12:58:52;97287.56;;;23.88
27826;BMP280;15077;49.704;9.908;2023-04-23T13:01:18;97293.03;;;23.92
27826;BMP280;15077;49.704;9.908;2023-04-23T13:03:43;97281.56;;;23.95
27826;BMP280;15077;49.704;9.908;2023-04-23T13:06:09;97276.69;;;24.00
27826;BMP280;15077;49.704;9.908;2023-04-23T13:08:35;97265.38;;;24.01
27826;BMP280;15077;49.704;9.908;2023-04-23T13:11:01;97258.59;;;24.08
27826;BMP280;15077;49.704;9.908;2023-04-23T13:13:26;97251.28;;;24.11
27826;BMP280;15077;49.704;9.908;2023-04-23T13:15:52;97254.34;;;24.15
27826;BMP280;15077;49.704;9.908;2023-04-23T13:18:19;97247.06;;;24.18
27826;BMP280;15077;49.704;9.908;2023-04-23T13:20:47;97241.91;;;24.18
27826;BMP280;15077;49.704;9.908;2023-04-23T13:23:12;97232.34;;;24.19
27826;BMP280;15077;49.704;9.908;2023-04-23T13:25:38;97236.38;;;24.21
27826;BMP280;15077;49.704;9.908;2023-04-23T13:28:04;97219.69;;;24.24
27826;BMP280;15077;49.704;9.908;2023-04-23T13:30:30;97225.84;;;24.31
27826;BMP280;15077;49.704;9.908;2023-04-23T13:32:56;97214.22;;;24.35
27826;BMP280;15077;49.704;9.908;2023-04-23T13:35:24;97199.28;;;24.37
27826;BMP280;15077;49.704;9.908;2023-04-23T13:37:50;97188.28;;;24.42
27826;BMP280;15077;49.704;9.908;2023-04-23T13:40:16;97184.38;;;24.46
27826;BMP280;15077;49.704;9.908;2023-04-23T13:42:41;97182.06;;;24.51
27826;BMP280;15077;49.704;9.908;2023-04-23T13:45:07;97174.47;;;24.58
27826;BMP280;15077;49.704;9.908;2023-04-23T13:47:34;97166.97;;;24.63
27826;BMP280;15077;49.704;9.908;2023-04-23T13:50:01;97172.25;;;24.69
27826;BMP280;15077;49.704;9.908;2023-04-23T13:52:29;97175.00;;;24.76
27826;BMP280;15077;49.704;9.908;2023-04-23T13:54:56;97161.19;;;24.83
27826;BMP280;15077;49.704;9.908;2023-04-23T13:57:22;97159.84;;;24.87
27826;BMP280;15077;49.704;9.908;2023-04-23T13:59:48;97151.75;;;24.90
27826;BMP280;15077;49.704;9.908;2023-04-23T14:02:14;97141.84;;;24.93
27826;BMP280;15077;49.704;9.908;2023-04-23T14:04:40;97148.31;;;24.97
27826;BMP280;15077;49.704;9.908;2023-04-23T14:07:06;97147.31;;;24.98
27826;BMP280;15077;49.704;9.908;2023-04-23T14:09:31;97144.41;;;25.01
27826;BMP280;15077;49.704;9.908;2023-04-23T14:11:57;97152.84;;;25.03
27826;BMP280;15077;49.704;9.908;2023-04-23T14:14:23;97149.06;;;25.06
27826;BMP280;15077;49.704;9.908;2023-04-23T14:16:49;97143.69;;;25.07